Time;durP1;ratioP1;P1;durP2;ratioP2;P2;SDS_P1;SDS_P2;PMS_P1;PMS_P2;Temp;Humidity;BMP_temperature;BMP_pressure;BME280_temperature;BME280_humidity;BME280_pressure;Samples;Min_cycle;Max_cycle;Signal;HPM_P1;HPM_P2
2022/01/20 00:01:02;;;;;;;24.98;13.70;;;3.40;88.10;;;;;;5096599;28;20032;-82
2022/01/20 00:03:34;;;;;;;25.48;13.73;;;3.50;87.90;;;;;;5097071;28;20028;-81
2022/01/20 00:08:52;;;;;;;23.55;12.95;;;3.50;88.00;;;;;;5099256;28;20021;-82
2022/01/20 00:28:03;;;;;;;20.17;11.88;;;3.60;88.40;;;;;;5100631;28;20051;-83
2022/01/20 00:38:24;;;;;;;17.20;9.93;;;3.70;87.80;;;;;;5100361;28;20034;-82
2022/01/20 00:40:53;;;;;;;15.57;10.20;;;3.70;87.50;;;;;;5100294;28;20017;-81
2022/01/20 00:43:21;;;;;;;15.23;9.30;;;3.70;87.40;;;;;;5100241;28;20032;-81
2022/01/20 00:45:49;;;;;;;18.85;10.10;;;3.70;87.50;;;;;;5099818;28;20126;-81
2022/01/20 00:48:16;;;;;;;17.40;9.70;;;3.70;87.70;;;;;;5100309;28;20028;-81
2022/01/20 00:50:43;;;;;;;16.70;9.55;;;3.80;87.30;;;;;;5100431;28;20008;-80
2022/01/20 00:53:11;;;;;;;20.73;9.68;;;3.80;86.80;;;;;;5100344;28;20044;-81
2022/01/20 00:55:38;;;;;;;17.10;8.50;;;3.80;86.80;;;;;;5099424;28;20005;-81
2022/01/20 00:58:04;;;;;;;12.07;8.35;;;3.80;86.90;;;;;;5081835;28;20050;-82
2022/01/20 01:00:31;;;;;;;14.95;8.98;;;3.80;86.90;;;;;;5098751;28;20032;-81
2022/01/20 01:03:00;;;;;;;15.57;8.57;;;3.80;86.80;;;;;;5097943;28;20027;-81
2022/01/20 01:05:29;;;;;;;13.63;8.70;;;3.90;86.60;;;;;;5097392;28;20013;-79
2022/01/20 01:07:57;;;;;;;14.60;8.80;;;3.90;86.50;;;;;;5098920;28;20040;-81
2022/01/20 01:10:27;;;;;;;14.73;8.55;;;3.90;86.40;;;;;;5094883;28;20396;-82
2022/01/20 01:13:03;;;;;;;13.30;8.25;;;3.90;86.70;;;;;;5098329;28;20163;-81
2022/01/20 01:15:35;;;;;;;13.45;9.77;;;3.90;87.20;;;;;;5081936;28;20021;-80
2022/01/20 01:23:34;;;;;;;15.02;9.23;;;3.90;87.70;;;;;;5099565;28;20048;-81
2022/01/20 01:26:03;;;;;;;14.43;8.32;;;3.90;87.40;;;;;;5095489;28;20007;-80
2022/01/20 01:28:30;;;;;;;16.42;9.35;;;3.90;87.90;;;;;;5096205;28;20392;-81
2022/01/20 01:33:36;;;;;;;16.02;9.45;;;3.90;89.70;;;;;;5095970;28;20041;-81
2022/01/20 01:36:08;;;;;;;15.73;9.00;;;3.90;89.70;;;;;;5086505;28;20043;-81
2022/01/20 01:38:45;;;;;;;17.05;9.18;;;3.80;90.00;;;;;;5086923;28;20038;-82
2022/01/20 01:41:27;;;;;;;17.25;10.57;;;3.80;90.10;;;;;;5088954;28;20029;-82
2022/01/20 01:44:08;;;;;;;;;;;3.80;90.80;;;;;;5071573;28;20031;-81
2022/01/20 01:46:36;;;;;;;19.45;10.27;;;3.80;91.60;;;;;;5086264;28;20396;-81
2022/01/20 01:49:03;;;;;;;14.48;8.85;;;3.70;92.00;;;;;;5087706;28;20055;-79
2022/01/20 01:51:30;;;;;;;17.90;10.48;;;3.70;92.50;;;;;;5071006;28;20028;-81
2022/01/20 01:53:58;;;;;;;16.38;9.10;;;3.60;92.90;;;;;;5091714;28;20077;-81
2022/01/20 01:56:27;;;;;;;16.52;9.90;;;3.60;93.20;;;;;;5091555;28;20001;-81
2022/01/20 01:58:55;;;;;;;14.25;9.23;;;3.60;93.30;;;;;;5089822;28;20147;-81
2022/01/20 02:01:22;;;;;;;15.93;9.60;;;3.60;93.40;;;;;;5087101;28;20020;-81
2022/01/20 02:03:58;;;;;;;14.85;9.30;;;3.60;93.50;;;;;;5088194;28;20019;-81
2022/01/20 02:09:21;;;;;;;12.57;8.13;;;3.60;93.70;;;;;;5088745;28;20024;-81
2022/01/20 02:17:52;;;;;;;11.38;6.38;;;3.60;93.90;;;;;;5090953;28;20111;-82
2022/01/20 02:20:17;;;;;;;5.22;3.53;;;3.70;94.30;;;;;;5091340;28;20038;-82
2022/01/20 02:22:42;;;;;;;6.93;4.28;;;3.70;94.50;;;;;;5093232;28;20035;-82
2022/01/20 02:25:27;;;;;;;8.73;3.95;;;3.80;94.40;;;;;;5094707;28;20076;-81
2022/01/20 02:27:55;;;;;;;5.10;3.08;;;3.90;94.30;;;;;;5096521;28;20025;-81
2022/01/20 02:30:25;;;;;;;4.72;3.97;;;4.00;94.20;;;;;;5096340;28;20048;-81
2022/01/20 02:33:03;;;;;;;5.40;3.42;;;4.10;94.00;;;;;;5094552;28;20039;-81
2022/01/20 02:35:43;;;;;;;4.93;3.35;;;4.10;93.80;;;;;;5096808;28;20021;-81
2022/01/20 02:45:56;;;;;;;3.92;3.15;;;4.40;93.20;;;;;;5096523;28;20067;-81
2022/01/20 02:48:24;;;;;;;5.35;3.13;;;4.40;93.10;;;;;;5097576;28;20019;-79
2022/01/20 02:50:51;;;;;;;3.53;2.72;;;4.50;93.00;;;;;;5094514;28;20107;-80
2022/01/20 02:53:19;;;;;;;3.45;1.95;;;4.50;93.10;;;;;;5092247;28;20016;-81
2022/01/20 02:55:46;;;;;;;4.72;2.90;;;4.50;93.80;;;;;;5090282;28;20017;-82
2022/01/20 02:58:12;;;;;;;3.40;2.38;;;4.50;94.20;;;;;;5090452;28;20040;-82
2022/01/20 03:00:40;;;;;;;3.50;2.92;;;4.50;94.80;;;;;;5092737;28;20015;-81
2022/01/20 03:03:07;;;;;;;4.72;2.97;;;4.50;95.00;;;;;;5090131;28;20020;-81
2022/01/20 03:05:35;;;;;;;7.32;4.22;;;4.50;95.00;;;;;;5091565;28;20024;-82
2022/01/20 03:08:01;;;;;;;7.40;3.97;;;4.40;94.50;;;;;;5093942;28;20024;-81
2022/01/20 03:10:28;;;;;;;8.48;5.38;;;4.40;94.30;;;;;;5096776;28;20380;-81
2022/01/20 03:12:56;;;;;;;8.73;5.32;;;4.30;94.20;;;;;;5095581;28;20021;-80
2022/01/20 03:15:34;;;;;;;7.75;5.30;;;4.20;94.30;;;;;;5095272;28;20048;-81
2022/01/20 03:18:02;;;;;;;7.45;5.13;;;4.20;94.30;;;;;;5095161;28;20477;-82
2022/01/20 03:20:29;;;;;;;8.75;5.07;;;4.10;94.40;;;;;;5095476;28;20035;-81
2022/01/20 03:23:16;;;;;;;7.32;4.60;;;4.10;94.30;;;;;;5094773;28;20021;-81
2022/01/20 03:25:42;;;;;;;7.30;5.05;;;4.10;94.30;;;;;;5087751;28;20017;-82
2022/01/20 03:28:09;;;;;;;7.47;4.90;;;4.00;94.60;;;;;;5081943;28;20077;-81
2022/01/20 03:30:37;;;;;;;6.65;4.30;;;4.00;94.90;;;;;;5089644;28;20013;-81
2022/01/20 03:33:04;;;;;;;4.53;3.45;;;4.00;95.20;;;;;;5092063;28;20013;-81
2022/01/20 03:35:33;;;;;;;4.15;2.33;;;4.00;96.20;;;;;;5090497;28;20051;-81
2022/01/20 03:37:59;;;;;;;2.92;2.40;;;4.10;96.30;;;;;;5092397;28;20005;-81
2022/01/20 03:40:26;;;;;;;2.67;2.05;;;4.10;96.30;;;;;;5093155;28;20094;-82
2022/01/20 03:42:53;;;;;;;3.25;2.95;;;4.20;96.00;;;;;;5093446;28;20025;-81
2022/01/20 03:45:25;;;;;;;2.58;1.92;;;4.20;96.00;;;;;;5095207;28;20013;-81
2022/01/20 03:47:58;;;;;;;4.97;2.70;;;4.30;95.60;;;;;;5094319;28;20004;-82
2022/01/20 03:53:11;;;;;;;2.72;2.30;;;4.30;95.20;;;;;;5094150;28;20043;-81
2022/01/20 03:55:37;;;;;;;4.70;2.42;;;4.30;95.30;;;;;;5095085;28;20008;-81
2022/01/20 03:58:04;;;;;;;2.40;2.20;;;4.40;95.30;;;;;;5092522;28;20024;-80
2022/01/20 04:00:36;;;;;;;4.50;2.75;;;4.40;95.00;;;;;;5092402;28;20012;-81
2022/01/20 04:03:02;;;;;;;4.07;2.65;;;4.40;95.00;;;;;;5091002;28;20729;-79
2022/01/20 04:05:27;;;;;;;4.20;2.47;;;4.40;95.00;;;;;;5075637;28;20004;-81
2022/01/20 04:07:54;;;;;;;3.58;2.65;;;4.40;94.90;;;;;;5092882;28;20031;-81
2022/01/20 04:10:21;;;;;;;6.20;3.35;;;4.40;94.60;;;;;;5095171;28;20091;-81
2022/01/20 04:12:48;;;;;;;3.72;2.78;;;4.40;94.50;;;;;;5095646;28;20074;-81
2022/01/20 04:15:17;;;;;;;5.95;2.72;;;4.40;94.30;;;;;;5097103;28;20091;-80
2022/01/20 04:17:51;;;;;;;4.57;2.50;;;4.40;94.10;;;;;;5100021;28;20013;-81
2022/01/20 04:20:18;;;;;;;7.38;3.05;;;4.40;94.20;;;;;;5099959;28;20029;-80
2022/01/20 04:22:46;;;;;;;6.30;2.60;;;4.40;94.30;;;;;;5098038;28;20044;-81
2022/01/20 04:25:14;;;;;;;5.15;2.17;;;4.40;93.70;;;;;;5100232;28;20017;-81
2022/01/20 04:27:41;;;;;;;3.90;2.70;;;4.40;93.10;;;;;;5098679;28;20035;-81
2022/01/20 04:30:10;;;;;;;6.15;2.55;;;4.50;93.20;;;;;;5098726;28;20016;-80
2022/01/20 04:32:37;;;;;;;6.50;2.53;;;4.50;93.20;;;;;;5098973;28;20048;-80
2022/01/20 04:35:05;;;;;;;6.60;2.80;;;4.50;93.00;;;;;;5098186;28;20008;-81
2022/01/20 04:37:32;;;;;;;5.35;2.80;;;4.50;92.70;;;;;;5098253;28;19997;-81
2022/01/20 04:40:02;;;;;;;6.03;2.85;;;4.50;92.70;;;;;;5079948;28;20017;-82
2022/01/20 04:42:32;;;;;;;6.80;2.65;;;4.50;92.80;;;;;;5096792;28;20021;-82
2022/01/20 04:45:06;;;;;;;4.93;2.60;;;4.40;92.60;;;;;;5096869;28;20028;-81
2022/01/20 04:58:28;;;;;;;10.02;3.05;;;4.30;92.90;;;;;;5099781;28;20091;-81
2022/01/20 05:00:55;;;;;;;8.60;3.05;;;4.30;92.80;;;;;;5098520;28;20031;-80
2022/01/20 05:03:24;;;;;;;8.75;2.35;;;4.30;92.70;;;;;;5100256;28;20025;-81
2022/01/20 05:05:51;;;;;;;7.63;1.83;;;4.30;92.60;;;;;;5100303;28;20024;-81
2022/01/20 05:08:22;;;;;;;4.85;1.95;;;4.20;92.40;;;;;;5099411;28;20033;-82
2022/01/20 05:10:48;;;;;;;11.23;2.58;;;4.20;92.10;;;;;;5099294;28;20017;-81
2022/01/20 05:13:32;;;;;;;12.40;3.92;;;4.20;92.00;;;;;;5099590;28;20012;-81
2022/01/20 05:15:58;;;;;;;10.65;2.40;;;4.20;91.90;;;;;;5100025;28;20017;-82
2022/01/20 05:18:26;;;;;;;9.00;1.95;;;4.20;91.90;;;;;;5100335;28;20013;-81
2022/01/20 05:20:53;;;;;;;8.02;2.20;;;4.20;91.90;;;;;;5099190;28;20100;-81
2022/01/20 05:23:19;;;;;;;10.52;2.53;;;4.20;91.50;;;;;;5100021;28;20016;-82
2022/01/20 05:25:46;;;;;;;12.02;3.08;;;4.20;91.40;;;;;;5100286;28;20076;-82
2022/01/20 05:28:15;;;;;;;15.35;3.20;;;4.20;91.10;;;;;;5100149;28;20060;-81
2022/01/20 05:30:43;;;;;;;10.07;1.92;;;4.20;90.90;;;;;;5099593;28;20009;-81
2022/01/20 05:33:09;;;;;;;15.55;2.92;;;4.20;90.90;;;;;;5100080;28;20028;-81
2022/01/20 05:35:39;;;;;;;10.48;1.83;;;4.10;91.10;;;;;;5082574;28;20127;-81
2022/01/20 05:38:07;;;;;;;9.32;2.05;;;4.10;91.10;;;;;;5098656;28;20013;-82
2022/01/20 05:40:36;;;;;;;12.35;2.65;;;4.00;91.10;;;;;;5087535;28;20027;-83
2022/01/20 05:43:04;;;;;;;9.57;2.65;;;4.00;91.20;;;;;;5081974;28;20030;-83
2022/01/20 05:45:32;;;;;;;7.40;2.58;;;3.90;91.20;;;;;;5094212;28;20039;-83
2022/01/20 05:48:10;;;;;;;6.20;1.58;;;3.90;91.10;;;;;;5096066;28;20025;-82
2022/01/20 05:50:37;;;;;;;8.63;1.70;;;3.90;90.90;;;;;;5095201;28;20020;-82
2022/01/20 05:53:06;;;;;;;6.63;1.77;;;3.80;91.10;;;;;;5096899;28;20032;-82
2022/01/20 05:55:40;;;;;;;5.78;1.80;;;3.80;90.90;;;;;;5075610;28;20028;-84
2022/01/20 05:58:08;;;;;;;8.27;3.45;;;3.80;91.10;;;;;;5084998;28;20096;-82
2022/01/20 06:00:36;;;;;;;8.27;1.50;;;3.70;91.60;;;;;;5079830;28;20108;-82
2022/01/20 06:05:50;;;;;;;3.72;1.23;;;3.60;92.20;;;;;;5079349;28;20438;-83
2022/01/20 06:08:24;;;;;;;5.88;1.58;;;3.50;92.40;;;;;;5077442;28;20020;-80
2022/01/20 06:10:50;;;;;;;5.57;1.67;;;3.50;92.60;;;;;;5078107;28;20032;-84
2022/01/20 06:13:17;;;;;;;6.28;1.90;;;3.40;92.70;;;;;;5073855;28;20028;-83
2022/01/20 06:15:45;;;;;;;8.57;1.73;;;3.30;92.80;;;;;;5074159;28;20155;-83
2022/01/20 06:18:11;;;;;;;13.13;3.03;;;3.20;92.90;;;;;;5076151;28;20031;-83
2022/01/20 06:20:38;;;;;;;7.57;2.10;;;3.20;93.00;;;;;;5075588;28;20017;-81
2022/01/20 06:23:16;;;;;;;8.43;2.45;;;3.10;93.00;;;;;;5057874;28;20082;-83
2022/01/20 06:25:44;;;;;;;7.40;1.80;;;3.00;93.00;;;;;;5075060;28;20032;-83
2022/01/20 06:28:10;;;;;;;8.23;2.45;;;3.00;93.00;;;;;;5074255;28;20033;-82
2022/01/20 06:30:37;;;;;;;6.25;1.55;;;2.90;93.10;;;;;;5078034;28;20112;-81
2022/01/20 06:33:03;;;;;;;7.78;2.97;;;2.90;92.90;;;;;;5078429;28;20025;-82
2022/01/20 06:35:29;;;;;;;7.53;1.90;;;2.80;92.80;;;;;;5059076;28;20070;-83
2022/01/20 06:37:55;;;;;;;8.35;2.78;;;2.80;92.40;;;;;;5076608;28;20169;-81
2022/01/20 06:40:34;;;;;;;13.48;2.22;;;2.80;92.30;;;;;;5076018;28;20103;-79
2022/01/20 06:43:02;;;;;;;12.02;2.17;;;2.80;91.90;;;;;;5074148;28;20032;-78
2022/01/20 06:45:29;;;;;;;7.43;2.72;;;2.70;91.90;;;;;;5071748;28;20043;-77
2022/01/20 06:47:56;;;;;;;9.55;2.30;;;2.70;92.20;;;;;;5071580;28;20492;-77
2022/01/20 06:50:23;;;;;;;7.75;2.78;;;2.70;91.90;;;;;;5071928;28;20017;-77
2022/01/20 06:52:52;;;;;;;10.60;2.80;;;2.80;91.90;;;;;;5072272;28;20032;-77
2022/01/20 06:55:20;;;;;;;6.95;1.70;;;2.80;91.70;;;;;;5072235;28;20031;-77
2022/01/20 06:57:46;;;;;;;8.07;1.77;;;2.80;92.20;;;;;;5071725;28;20045;-77
2022/01/20 07:00:16;;;;;;;5.60;1.85;;;2.90;92.80;;;;;;5072410;28;20100;-78
2022/01/20 07:02:44;;;;;;;6.88;2.90;;;2.90;90.60;;;;;;5073780;28;20127;-78
2022/01/20 07:05:12;;;;;;;6.68;2.03;;;2.90;90.30;;;;;;5072207;28;20064;-79
2022/01/20 07:07:40;;;;;;;9.23;1.92;;;2.90;90.00;;;;;;5072502;28;20099;-77
2022/01/20 07:10:09;;;;;;;14.93;2.80;;;2.90;89.80;;;;;;5072210;28;20021;-78
2022/01/20 07:12:37;;;;;;;5.95;1.90;;;2.90;89.50;;;;;;5055753;28;20033;-77
2022/01/20 07:15:06;;;;;;;14.15;2.55;;;2.80;89.20;;;;;;5073280;28;20024;-76
2022/01/20 07:17:31;;;;;;;10.18;3.00;;;2.80;88.90;;;;;;5061839;28;20032;-79
2022/01/20 07:19:59;;;;;;;12.73;3.28;;;2.80;88.40;;;;;;5068804;28;20021;-80
2022/01/20 07:22:25;;;;;;;12.38;2.20;;;2.90;87.80;;;;;;5058558;28;20576;-79
2022/01/20 07:24:51;;;;;;;12.13;3.03;;;3.00;88.50;;;;;;5072516;28;20020;-80
2022/01/20 07:27:18;;;;;;;11.35;2.45;;;3.20;87.90;;;;;;5071835;28;20461;-79
2022/01/20 07:29:44;;;;;;;13.70;2.67;;;3.30;86.70;;;;;;5072623;28;20052;-80
2022/01/20 07:32:09;;;;;;;6.47;1.98;;;3.50;86.20;;;;;;5073176;28;20067;-81
2022/01/20 07:34:35;;;;;;;10.82;2.58;;;3.60;85.10;;;;;;5073732;28;20017;-81
2022/01/20 07:37:02;;;;;;;10.23;1.90;;;3.60;83.90;;;;;;5072158;28;20117;-80
2022/01/20 07:39:29;;;;;;;10.55;2.60;;;3.70;83.20;;;;;;5073578;28;20150;-80
2022/01/20 07:41:56;;;;;;;6.15;2.70;;;3.70;82.60;;;;;;5073713;28;20032;-79
2022/01/20 07:44:21;;;;;;;16.23;3.67;;;3.80;82.10;;;;;;5076155;28;20055;-79
2022/01/20 07:46:48;;;;;;;10.20;3.08;;;3.80;81.80;;;;;;5079854;28;20039;-81
2022/01/20 07:49:14;;;;;;;9.10;2.30;;;3.80;81.60;;;;;;5066944;28;20061;-79
2022/01/20 07:51:41;;;;;;;6.72;2.45;;;3.80;81.40;;;;;;5061330;28;20040;-81
2022/01/20 07:54:09;;;;;;;11.07;1.90;;;3.80;81.50;;;;;;5076192;28;20076;-80
2022/01/20 07:56:36;;;;;;;15.35;3.53;;;3.80;81.10;;;;;;5061058;28;20089;-80
2022/01/20 08:01:35;;;;;;;9.20;3.08;;;3.80;80.90;;;;;;5108169;27;85179;-79
2022/01/20 08:04:02;;;;;;;12.55;2.75;;;3.80;82.70;;;;;;5110888;28;20031;-79
2022/01/20 08:06:30;;;;;;;7.95;1.92;;;3.80;83.00;;;;;;5109617;28;20110;-77
2022/01/20 08:08:55;;;;;;;18.20;2.60;;;3.90;83.10;;;;;;5111341;28;20095;-77
2022/01/20 08:11:22;;;;;;;6.28;2.25;;;3.90;83.10;;;;;;5110797;28;20461;-80
2022/01/20 08:13:49;;;;;;;9.57;2.30;;;3.90;84.60;;;;;;5111224;28;20024;-78
2022/01/20 08:16:16;;;;;;;13.82;2.20;;;3.90;86.10;;;;;;5109915;28;20385;-81
2022/01/20 08:18:43;;;;;;;15.77;2.60;;;3.80;87.80;;;;;;5109799;28;20020;-80
2022/01/20 08:21:10;;;;;;;6.28;1.90;;;3.80;88.70;;;;;;5108252;28;20048;-78
2022/01/20 08:23:36;;;;;;;8.55;2.28;;;3.70;91.40;;;;;;5110544;28;20058;-80
2022/01/20 08:26:02;;;;;;;31.52;3.88;;;3.50;92.40;;;;;;5109845;27;20044;-77
2022/01/20 08:28:29;;;;;;;12.63;2.13;;;3.20;93.40;;;;;;5110632;28;20031;-78
2022/01/20 08:30:56;;;;;;;19.45;2.50;;;2.90;94.90;;;;;;5101869;28;20412;-78
2022/01/20 08:33:23;;;;;;;37.15;3.42;;;2.70;96.00;;;;;;5110313;28;20099;-79
2022/01/20 08:35:49;;;;;;;1.63;1.02;;;2.50;97.60;;;;;;5108779;28;20047;-77
2022/01/20 08:38:15;;;;;;;5.53;0.98;;;2.30;98.30;;;;;;5108079;28;20031;-78
2022/01/20 08:40:42;;;;;;;3.63;0.82;;;2.10;99.10;;;;;;5097358;28;20044;-79
2022/01/20 08:43:10;;;;;;;5.28;1.35;;;2.00;99.90;;;;;;5099628;28;20020;-78
2022/01/20 08:45:37;;;;;;;1.65;0.93;;;1.90;99.90;;;;;;5109670;28;20465;-76
2022/01/20 08:48:03;;;;;;;11.90;1.70;;;1.70;99.90;;;;;;5108368;28;20024;-76
2022/01/20 08:50:31;;;;;;;5.65;1.80;;;1.70;99.90;;;;;;5109543;28;20499;-78
2022/01/20 08:52:57;;;;;;;4.35;1.77;;;1.60;99.90;;;;;;5109942;28;20066;-78
2022/01/20 08:55:26;;;;;;;1.77;0.88;;;1.60;99.90;;;;;;5109549;28;20048;-77
2022/01/20 08:57:52;;;;;;;3.83;1.27;;;1.60;99.90;;;;;;5094041;28;20027;-81
2022/01/20 09:00:19;;;;;;;7.05;1.10;;;1.60;99.90;;;;;;5090550;28;20062;-80
2022/01/20 09:02:45;;;;;;;6.63;1.88;;;1.60;99.90;;;;;;5089073;28;20404;-80
2022/01/20 09:05:10;;;;;;;8.07;1.70;;;1.60;99.90;;;;;;5089628;28;20062;-79
2022/01/20 09:07:36;;;;;;;5.88;1.90;;;1.60;99.90;;;;;;5089972;28;20012;-82
2022/01/20 09:10:07;;;;;;;9.60;1.88;;;1.60;99.90;;;;;;5089259;28;20134;-79
2022/01/20 09:17:46;;;;;;;4.82;1.75;;;1.60;98.90;;;;;;5076718;28;20086;-78
2022/01/20 09:20:12;;;;;;;3.85;0.93;;;1.60;99.20;;;;;;5077276;28;20082;-79
2022/01/20 09:22:39;;;;;;;8.57;1.70;;;1.60;99.40;;;;;;5073921;28;20013;-77
2022/01/20 09:25:06;;;;;;;4.38;1.48;;;1.70;99.30;;;;;;5075108;28;20472;-80
2022/01/20 09:27:34;;;;;;;13.70;1.77;;;1.60;99.10;;;;;;5057443;28;20467;-77
2022/01/20 09:30:02;;;;;;;11.38;2.38;;;1.70;99.30;;;;;;5090682;28;20033;-80
2022/01/20 09:32:31;;;;;;;5.25;2.38;;;1.70;98.80;;;;;;5074317;28;20039;-81
2022/01/20 09:34:57;;;;;;;3.70;1.45;;;1.80;98.10;;;;;;5090060;28;20027;-78
2022/01/20 09:37:24;;;;;;;5.60;1.90;;;1.80;97.10;;;;;;5095237;28;20032;-81
2022/01/20 09:39:51;;;;;;;8.90;2.38;;;1.90;97.10;;;;;;5095271;28;20043;-79
2022/01/20 09:42:17;;;;;;;7.85;1.90;;;1.90;96.60;;;;;;5111006;28;20012;-81
2022/01/20 09:44:45;;;;;;;5.70;2.22;;;1.90;95.20;;;;;;5112601;28;20054;-79
2022/01/20 09:47:12;;;;;;;6.95;1.73;;;2.00;94.40;;;;;;5094928;28;20024;-79
2022/01/20 09:49:39;;;;;;;6.05;2.22;;;2.10;94.30;;;;;;5094320;28;20101;-80
2022/01/20 09:52:06;;;;;;;11.45;2.00;;;2.10;93.90;;;;;;5111142;28;20027;-80
2022/01/20 09:54:31;;;;;;;14.13;3.42;;;2.20;93.60;;;;;;5095302;28;20020;-80
2022/01/20 09:56:58;;;;;;;6.15;2.28;;;2.20;93.50;;;;;;5094867;28;20091;-80
2022/01/20 09:59:24;;;;;;;6.88;2.75;;;2.20;93.60;;;;;;5083141;28;20116;-80
2022/01/20 10:01:56;;;;;;;5.85;2.03;;;2.30;93.40;;;;;;5054921;28;20062;-79
2022/01/20 10:04:29;;;;;;;2.63;1.38;;;2.20;94.10;;;;;;5086264;28;20389;-78
2022/01/20 10:07:01;;;;;;;1.88;1.38;;;2.10;94.40;;;;;;5056932;28;20100;-81
2022/01/20 10:09:36;;;;;;;8.13;3.28;;;1.80;94.70;;;;;;5054743;28;20036;-79
2022/01/20 10:12:04;;;;;;;6.00;3.60;;;1.70;96.30;;;;;;5055089;28;20017;-78
2022/01/20 10:14:43;;;;;;;5.75;1.92;;;1.60;96.70;;;;;;5086802;28;20074;-78
2022/01/20 10:17:21;;;;;;;3.67;1.60;;;1.60;96.60;;;;;;5087621;28;20033;-78
2022/01/20 10:19:50;;;;;;;3.92;1.40;;;1.50;96.60;;;;;;5094989;28;20044;-78
2022/01/20 10:22:22;;;;;;;3.72;1.60;;;1.50;97.30;;;;;;5062562;28;20070;-78
2022/01/20 10:25:07;;;;;;;3.47;1.23;;;1.60;97.90;;;;;;5060216;28;20028;-80
2022/01/20 10:27:54;;;;;;;5.95;1.50;;;1.80;97.40;;;;;;5055702;28;20040;-78
2022/01/20 10:30:25;;;;;;;3.65;1.38;;;1.90;94.50;;;;;;5071475;28;20369;-79
2022/01/20 10:32:56;;;;;;;6.43;1.30;;;2.00;93.50;;;;;;5073796;28;20478;-79
2022/01/20 10:35:33;;;;;;;2.40;0.98;;;2.00;90.80;;;;;;5073611;28;20073;-79
2022/01/20 10:38:16;;;;;;;8.70;1.52;;;2.00;90.40;;;;;;5074056;28;20017;-78
2022/01/20 10:40:54;;;;;;;5.30;1.30;;;2.00;90.20;;;;;;5074141;28;20028;-78
2022/01/20 10:43:25;;;;;;;3.30;1.67;;;2.00;90.00;;;;;;5074404;28;20032;-78
2022/01/20 10:46:13;;;;;;;3.08;1.67;;;1.90;90.00;;;;;;5074079;28;20049;-79
2022/01/20 10:48:40;;;;;;;4.28;1.10;;;1.90;89.60;;;;;;5069201;28;20020;-80
2022/01/20 10:51:16;;;;;;;5.05;1.33;;;1.80;90.00;;;;;;5072409;28;20039;-79
2022/01/20 10:53:42;;;;;;;4.97;1.95;;;1.70;91.00;;;;;;5072784;28;20017;-79
2022/01/20 10:56:08;;;;;;;4.07;1.55;;;1.70;90.60;;;;;;5074083;28;20025;-77
2022/01/20 10:58:35;;;;;;;4.47;1.35;;;1.70;88.70;;;;;;5074456;28;20449;-75
2022/01/20 11:01:04;;;;;;;7.20;1.15;;;1.60;88.50;;;;;;5073677;28;20485;-77
2022/01/20 11:03:31;;;;;;;11.05;2.25;;;1.60;89.10;;;;;;5072489;28;20008;-77
2022/01/20 11:05:59;;;;;;;7.35;1.55;;;1.60;91.60;;;;;;5074273;28;20031;-76
2022/01/20 11:08:25;;;;;;;7.88;2.58;;;;;;;;;;5089273;28;20414;-76
2022/01/20 11:10:52;;;;;;;15.25;1.95;;;;;;;;;;5089363;28;20055;-80
2022/01/20 11:13:19;;;;;;;;;;;;;;;;;;5074234;28;20340;-75
2022/01/20 11:16:57;;;;;;;;;;;;;;;4.05;69.84;99813.44;5040800;28;20016;-78
2022/01/20 11:19:22;;;;;;;;;;;;;;;3.06;71.06;99818.94;5088669;28;19916;-76
2022/01/20 11:21:48;;;;;;;;;;;;;;;2.45;75.57;99818.81;5072602;28;19917;-76
2022/01/20 11:24:23;;;;;;;;;;;;;;;1.96;76.45;99826.28;5073281;28;19912;-78
2022/01/20 11:26:57;;;;;;;;;;;;;;;1.49;78.11;99822.78;5053414;28;20028;-76
2022/01/20 11:29:23;;;;;;;;;;;;;;;1.24;83.14;99834.47;5070708;28;19920;-77
2022/01/20 11:31:49;;;;;;;;;;;;;;;1.18;81.88;99824.97;5081862;28;19965;-77
2022/01/20 11:34:15;;;;;;;;;;;;;;;1.12;85.33;99829.47;5089602;28;20315;-77
2022/01/20 11:36:40;;;;;;;;;;;;;;;1.15;85.74;99837.03;5090001;28;19964;-75
2022/01/20 11:39:06;;;;;;;;;;;;;;;1.07;85.46;99827.94;5090249;28;20011;-75
2022/01/20 11:41:36;;;;;;;;;;;;;;;1.10;86.82;99832.69;5089109;28;20250;-75
2022/01/20 11:44:11;;;;;;;;;;;;;;;1.22;89.79;99834.09;5089586;28;20292;-76
2022/01/20 11:46:43;;;;;;;;;;;;;;;1.15;87.84;99832.22;5089062;28;19920;-73
2022/01/20 12:42:06;;;;;;;9.20;3.15;;;;;;;2.37;84.57;99828.63;5036204;27;20485;-75
2022/01/20 12:45:03;;;;;;;9.20;3.55;;;;;;;2.12;81.20;99835.56;4989587;28;20380;-77
2022/01/20 12:47:29;;;;;;;8.10;1.90;;;;;;;2.01;82.07;99845.44;5009233;28;20022;-79
2022/01/20 12:49:59;;;;;;;7.13;2.40;;;;;;;2.01;82.55;99846.22;5009212;28;20014;-79
2022/01/20 12:52:25;;;;;;;9.90;1.77;;;;;;;2.01;81.23;99839.81;5010866;28;20475;-77
2022/01/20 12:54:50;;;;;;;9.20;1.92;;;;;;;2.20;81.69;99841.81;5011052;28;20060;-78
2022/01/20 12:57:17;;;;;;;9.10;2.58;;;;;;;2.24;79.19;99841.75;5000719;28;20026;-76
2022/01/20 12:59:44;;;;;;;6.53;1.65;;;;;;;2.33;76.08;99830.69;4991610;28;20144;-75
2022/01/20 13:02:13;;;;;;;8.85;1.95;;;;;;;2.38;75.69;99833.00;4992348;28;20027;-79
2022/01/20 13:04:39;;;;;;;11.85;3.15;;;;;;;2.44;75.90;99834.88;4992231;28;20033;-79
2022/01/20 13:07:07;;;;;;;9.45;3.30;;;;;;;2.47;72.52;99817.13;4989477;28;20049;-82
2022/01/20 13:09:46;;;;;;;6.82;1.77;;;;;;;2.44;72.21;99831.25;4991546;28;20026;-79
2022/01/20 13:12:13;;;;;;;5.90;2.22;;;;;;;2.49;69.49;99831.56;4991341;28;20101;-77
2022/01/20 13:14:42;;;;;;;8.05;2.00;;;;;;;2.51;65.76;99823.47;4990606;28;20066;-80
2022/01/20 13:17:09;;;;;;;8.50;2.20;;;;;;;2.63;69.59;99833.25;4988154;28;20440;-78
2022/01/20 13:19:44;;;;;;;10.05;2.40;;;;;;;2.65;67.45;99827.19;5005307;28;20113;-80
2022/01/20 13:22:40;;;;;;;8.93;1.67;;;;;;;2.54;63.52;99833.03;4971343;28;20050;-80
2022/01/20 13:25:07;;;;;;;10.10;2.45;;;;;;;2.55;66.12;99829.81;4988433;28;20035;-78
2022/01/20 13:27:33;;;;;;;9.55;2.10;;;;;;;2.66;64.61;99832.38;4989079;28;20057;-78
2022/01/20 13:29:58;;;;;;;12.45;3.47;;;;;;;2.87;62.47;99826.22;4988963;28;20057;-79
2022/01/20 13:32:24;;;;;;;7.10;2.35;;;;;;;3.07;63.40;99845.84;4988284;28;20076;-78
2022/01/20 13:34:54;;;;;;;9.18;1.80;;;;;;;3.08;57.67;99829.75;4989441;28;20080;-78
2022/01/20 13:37:19;;;;;;;10.20;2.25;;;;;;;3.09;58.57;99851.03;4990780;28;20053;-78
2022/01/20 13:39:45;;;;;;;8.02;1.98;;;;;;;3.20;60.46;99843.13;4988026;28;20510;-80
2022/01/20 13:45:13;;;;;;;11.10;2.67;;;;;;;3.28;59.82;99838.91;4985728;28;20499;-78
2022/01/20 13:47:45;;;;;;;4.60;2.07;;;;;;;3.39;59.80;99843.03;4986878;28;20105;-77
2022/01/20 13:50:15;;;;;;;8.95;3.08;;;;;;;3.37;59.65;99842.66;5002764;28;20046;-77
2022/01/20 13:52:40;;;;;;;6.25;1.70;;;;;;;3.36;56.88;99841.06;4977702;28;20034;-78
2022/01/20 13:55:17;;;;;;;7.32;2.22;;;;;;;3.36;57.73;99832.63;4975056;28;20027;-78
2022/01/20 13:57:42;;;;;;;4.90;1.77;;;;;;;3.14;56.88;99837.25;4975500;28;20026;-78
2022/01/20 14:00:10;;;;;;;8.32;2.17;;;;;;;3.11;58.39;99835.28;4976718;28;20026;-78
2022/01/20 14:02:36;;;;;;;9.50;1.95;;;;;;;3.19;59.31;99839.53;4976934;28;20110;-76
2022/01/20 14:05:01;;;;;;;9.35;2.45;;;;;;;3.09;59.31;99853.84;4975604;28;20112;-77
2022/01/20 14:07:26;;;;;;;6.28;1.80;;;;;;;3.04;57.87;99839.09;4976989;28;20023;-77
2022/01/20 14:09:52;;;;;;;8.88;2.10;;;;;;;3.01;57.76;99856.81;4976937;28;20046;-77
2022/01/20 14:12:17;;;;;;;11.27;3.03;;;;;;;3.00;56.67;99857.28;4976139;28;20023;-77
2022/01/20 14:14:43;;;;;;;8.82;3.28;;;;;;;3.09;60.33;99860.28;4975571;28;20045;-79
2022/01/20 14:17:18;;;;;;;19.60;3.25;;;;;;;3.19;57.09;99864.06;4975701;28;20027;-80
2022/01/20 14:19:46;;;;;;;11.68;2.85;;;;;;;3.06;58.86;99871.63;4976007;28;20030;-78
2022/01/20 14:22:11;;;;;;;11.23;2.65;;;;;;;3.10;59.12;99867.50;4975490;28;20027;-80
2022/01/20 14:24:37;;;;;;;10.35;3.03;;;;;;;2.89;58.81;99853.94;4975518;28;20022;-79
2022/01/20 14:27:10;;;;;;;5.43;2.22;;;;;;;2.90;59.80;99880.81;4975521;28;20428;-80
2022/01/20 14:29:39;;;;;;;8.15;2.28;;;;;;;2.73;60.35;99856.72;4976290;28;20392;-78
2022/01/20 14:32:05;;;;;;;11.38;2.50;;;;;;;2.85;61.76;99870.91;4975127;28;20026;-78
2022/01/20 14:34:31;;;;;;;9.25;2.45;;;;;;;2.80;61.50;99870.63;4976710;28;20105;-77
2022/01/20 14:36:56;;;;;;;16.15;3.40;;;;;;;2.69;62.14;99878.50;4975076;28;20062;-77
2022/01/20 14:39:21;;;;;;;14.60;3.15;;;;;;;2.57;62.56;99874.31;4975188;28;20027;-79
2022/01/20 14:41:47;;;;;;;11.57;3.35;;;;;;;2.54;62.03;99864.75;4986977;28;20039;-78
2022/01/20 14:44:12;;;;;;;13.95;2.60;;;;;;;2.37;61.71;99857.50;4976777;28;20027;-80
2022/01/20 14:46:37;;;;;;;11.40;2.33;;;;;;;2.27;62.09;99885.84;4977049;28;20356;-78
2022/01/20 14:49:03;;;;;;;15.30;2.78;;;;;;;2.15;63.18;99876.03;4974940;28;20456;-78
2022/01/20 14:51:28;;;;;;;10.93;3.60;;;;;;;2.26;62.90;99881.44;4972584;28;20051;-80
2022/01/20 14:53:53;;;;;;;11.52;3.88;;;;;;;2.18;62.26;99892.03;4975118;28;20026;-77
2022/01/20 14:56:19;;;;;;;11.90;2.75;;;;;;;1.93;62.76;99880.47;4975930;28;20031;-82
2022/01/20 14:58:48;;;;;;;11.57;2.97;;;;;;;1.87;62.46;99901.88;4974835;28;20046;-79
2022/01/20 15:01:14;;;;;;;15.75;3.85;;;;;;;1.85;63.02;99910.72;4975798;28;20085;-79